createdAt,value
2018-06-11T00:01:55.657Z,97293.25
2018-06-11T00:04:24.116Z,97294.32
2018-06-11T00:06:52.516Z,97286.45
2018-06-11T00:09:20.965Z,97283.71
2018-06-11T00:11:49.435Z,97282.62
2018-06-11T00:14:17.864Z,97288.00
2018-06-11T00:16:46.612Z,97296.69
2018-06-11T00:19:15.085Z,97299.84
2018-06-11T00:21:43.652Z,97293.68
2018-06-11T00:24:12.609Z,97284.47
2018-06-11T00:26:41.387Z,97279.67
2018-06-11T00:29:09.806Z,97274.63
2018-06-11T00:31:38.259Z,97277.64
2018-06-11T00:34:07.499Z,97276.12
2018-06-11T00:36:36.005Z,97273.67
2018-06-11T00:39:06.096Z,97264.13
2018-06-11T00:41:34.486Z,97263.97
2018-06-11T00:44:03.140Z,97260.66
2018-06-11T00:46:31.577Z,97251.83
2018-06-11T00:49:00.175Z,97246.36
2018-06-11T00:51:28.662Z,97244.06
2018-06-11T00:53:57.237Z,97243.94
2018-06-11T00:56:25.714Z,97242.20
2018-06-11T00:58:54.516Z,97243.36
2018-06-11T01:01:22.969Z,97237.07
2018-06-11T01:03:51.789Z,97234.94
2018-06-11T01:06:20.260Z,97235.02
2018-06-11T01:08:48.703Z,97235.19
2018-06-11T01:11:17.222Z,97236.27
2018-06-11T01:13:45.685Z,97234.72
2018-06-11T01:16:14.169Z,97239.50
2018-06-11T01:18:42.622Z,97235.33
2018-06-11T01:21:11.124Z,97235.08
2018-06-11T01:23:39.529Z,97225.74
2018-06-11T01:26:08.126Z,97225.35
2018-06-11T01:28:36.591Z,97222.00
2018-06-11T01:31:05.006Z,97219.85
2018-06-11T01:33:33.475Z,97215.11
2018-06-11T01:36:01.899Z,97208.08
2018-06-11T01:38:30.580Z,97215.97
2018-06-11T01:40:59.182Z,97220.06
2018-06-11T01:43:27.631Z,97220.22
2018-06-11T01:45:56.064Z,97213.25
2018-06-11T01:48:24.558Z,97205.42
2018-06-11T01:50:52.952Z,97194.30
2018-06-11T01:53:21.886Z,97196.02
2018-06-11T01:55:50.391Z,97199.97
2018-06-11T01:58:18.802Z,97199.97
2018-06-11T02:00:47.293Z,97206.65
2018-06-11T02:03:16.002Z,97202.70
2018-06-11T02:05:44.414Z,97203.17
2018-06-11T02:08:12.932Z,97193.55
2018-06-11T02:10:42.046Z,97191.81
2018-06-11T02:13:10.555Z,97193.55
2018-06-11T02:15:38.996Z,97201.44
2018-06-11T02:18:07.470Z,97197.56
2018-06-11T02:20:36.015Z,97192.09
2018-06-11T02:23:04.593Z,97192.71
2018-06-11T02:25:32.989Z,97199.39
2018-06-11T02:28:01.891Z,97198.23
2018-06-11T02:30:30.381Z,97191.67
2018-06-11T02:32:58.845Z,97192.25
2018-06-11T02:35:27.367Z,97194.33
2018-06-11T02:37:55.796Z,97199.65
2018-06-11T02:40:24.238Z,97200.22
2018-06-11T02:42:52.670Z,97196.34
2018-06-11T02:45:21.080Z,97198.84
2018-06-11T02:47:49.502Z,97194.99
2018-06-11T02:50:17.930Z,97194.45
2018-06-11T02:52:46.443Z,97191.52
2018-06-11T02:55:14.873Z,97193.66
2018-06-11T02:57:44.686Z,97187.17
2018-06-11T03:00:13.331Z,97195.60
2018-06-11T03:02:41.784Z,97192.66
2018-06-11T03:05:10.351Z,97203.87
2018-06-11T03:07:38.810Z,97210.45
2018-06-11T03:10:07.265Z,97204.71
2018-06-11T03:12:35.667Z,97201.50
2018-06-11T03:15:04.128Z,97210.10
2018-06-11T03:17:32.530Z,97196.83
2018-06-11T03:20:00.946Z,97195.97
2018-06-11T03:22:29.475Z,97192.39
2018-06-11T03:24:57.988Z,97190.86
2018-06-11T03:27:26.451Z,97183.91
2018-06-11T03:29:55.618Z,97191.16
2018-06-11T03:32:24.053Z,97190.58
2018-06-11T03:34:52.609Z,97192.01
2018-06-11T03:37:20.995Z,97195.05
2018-06-11T03:39:49.393Z,97189.45
2018-06-11T03:42:17.978Z,97195.81
2018-06-11T03:44:46.354Z,97191.60
2018-06-11T03:47:14.783Z,97188.45
2018-06-11T03:49:43.177Z,97190.80
2018-06-11T03:52:11.611Z,97197.58
2018-06-11T03:54:40.056Z,97192.60
2018-06-11T03:57:08.573Z,97191.74
2018-06-11T03:59:37.028Z,97187.95
2018-06-11T04:02:05.664Z,97204.95
2018-06-11T04:04:34.133Z,97204.95
2018-06-11T04:07:02.606Z,97204.73
2018-06-11T04:09:31.635Z,97203.73
2018-06-11T04:12:00.054Z,97200.07
2018-06-11T04:14:28.503Z,97203.73
2018-06-11T04:16:56.971Z,97193.83
2018-06-11T04:19:25.448Z,97196.65
2018-06-11T04:21:56.693Z,97202.46
2018-06-11T04:24:25.132Z,97193.98
2018-06-11T04:26:54.305Z,97193.45
2018-06-11T04:29:22.786Z,97175.41
2018-06-11T04:31:51.391Z,97184.36
2018-06-11T04:34:19.833Z,97178.77
2018-06-11T04:36:48.365Z,97181.00
2018-06-11T04:39:16.927Z,97180.33
2018-06-11T04:41:52.825Z,97170.84
2018-06-11T04:44:23.826Z,97171.59
2018-06-11T04:46:52.251Z,97176.20
2018-06-11T04:49:20.724Z,97169.84
2018-06-11T04:51:49.192Z,97172.66
2018-06-11T04:54:17.718Z,97171.04
2018-06-11T04:56:46.226Z,97163.39
2018-06-11T04:59:14.782Z,97126.59
2018-06-11T05:01:43.232Z,97153.05
2018-06-11T05:04:11.645Z,97154.41
2018-06-11T05:06:40.833Z,97148.92
2018-06-11T05:09:09.366Z,97154.41
2018-06-11T05:11:37.827Z,97156.91
2018-06-11T05:14:06.430Z,97155.05
2018-06-11T05:16:34.978Z,97155.20
2018-06-11T05:19:03.532Z,97157.25
2018-06-11T05:21:32.037Z,97153.89
2018-06-11T05:24:00.546Z,97152.33
2018-06-11T05:26:29.018Z,97147.14
2018-06-11T05:28:57.475Z,97145.30
2018-06-11T05:31:25.902Z,97145.86
2018-06-11T05:33:55.044Z,97148.95
2018-06-11T05:36:23.573Z,97150.26
2018-06-11T05:38:52.035Z,97146.85
2018-06-11T05:41:20.496Z,97152.03
2018-06-11T05:43:48.981Z,97148.68
2018-06-11T05:46:17.465Z,97152.75
2018-06-11T05:48:46.668Z,97160.71
2018-06-11T05:51:15.157Z,97149.47
2018-06-11T05:53:43.645Z,97152.12
2018-06-11T05:56:12.772Z,97157.48
2018-06-11T05:58:41.893Z,97159.58
2018-06-11T06:01:10.582Z,97164.31
2018-06-11T06:03:39.001Z,97168.67
2018-06-11T06:06:07.445Z,97176.09
2018-06-11T06:08:36.637Z,97177.09
2018-06-11T06:11:06.143Z,97179.89
2018-06-11T06:13:35.094Z,97182.55
2018-06-11T06:16:03.543Z,97184.92
2018-06-11T06:18:31.987Z,97187.83
2018-06-11T06:21:00.551Z,97185.53
2018-06-11T06:23:28.982Z,97183.88
2018-06-11T06:25:58.174Z,97174.34
2018-06-11T06:28:27.420Z,97173.76
2018-06-11T06:30:55.849Z,97178.52
2018-06-11T06:33:24.344Z,97181.81
2018-06-11T06:35:52.781Z,97180.11
2018-06-11T06:38:21.186Z,97189.59
2018-06-11T06:40:49.714Z,97193.64
2018-06-11T06:43:18.308Z,97193.73
2018-06-11T06:45:46.773Z,97199.23
2018-06-11T06:48:15.186Z,97192.66
2018-06-11T06:50:43.619Z,97197.66
2018-06-11T06:53:12.623Z,97195.83
2018-06-11T06:55:41.100Z,97200.25
2018-06-11T06:58:09.552Z,97196.90
2018-06-11T07:00:38.046Z,97196.03
2018-06-11T07:03:06.502Z,97191.79
2018-06-11T07:05:34.965Z,97186.59
2018-06-11T07:08:03.508Z,97180.31
2018-06-11T07:10:32.135Z,97175.80
2018-06-11T07:13:00.616Z,97173.30
2018-06-11T07:15:29.051Z,97166.23
2018-06-11T07:17:58.068Z,97172.80
2018-06-11T07:20:26.513Z,97174.16
2018-06-11T07:22:55.065Z,97169.45
2018-06-11T07:25:23.578Z,97162.94
2018-06-11T07:27:58.351Z,97172.18
2018-06-11T07:30:26.793Z,97163.50
2018-06-11T07:32:55.321Z,97166.99
2018-06-11T07:35:23.788Z,97168.34
2018-06-11T07:37:52.192Z,97165.42
2018-06-11T07:40:20.700Z,97170.77
2018-06-11T07:42:49.230Z,97162.31
2018-06-11T07:45:17.672Z,97165.05
2018-06-11T07:47:46.066Z,97162.78
2018-06-11T07:50:14.618Z,97169.02
2018-06-11T07:52:43.048Z,97158.24
2018-06-11T07:55:11.623Z,97154.97
2018-06-11T07:57:40.069Z,97157.91
2018-06-11T08:00:08.562Z,97160.06
2018-06-11T08:02:37.145Z,97162.05
2018-06-11T08:05:05.674Z,97149.94
2018-06-11T08:07:34.201Z,97147.99
2018-06-11T08:10:02.619Z,97144.69
2018-06-11T08:12:37.702Z,97143.55
2018-06-11T08:15:06.309Z,97142.20
2018-06-11T08:17:34.818Z,97138.11
2018-06-11T08:20:03.311Z,97138.34
2018-06-11T08:22:31.912Z,97133.83
2018-06-11T08:25:00.420Z,97129.11
2018-06-11T08:27:29.692Z,97137.75
2018-06-11T08:29:59.197Z,97137.73
2018-06-11T08:32:27.715Z,97137.75
2018-06-11T08:34:56.156Z,97132.63
2018-06-11T08:37:24.675Z,97131.46
2018-06-11T08:39:53.251Z,97127.12
2018-06-11T08:42:21.859Z,97134.77
2018-06-11T08:44:50.367Z,97130.65
2018-06-11T08:47:18.870Z,97137.72
2018-06-11T08:49:47.471Z,97136.94
2018-06-11T08:52:16.032Z,97138.90
2018-06-11T08:54:44.469Z,97141.81
2018-06-11T08:57:13.056Z,97141.81
2018-06-11T08:59:41.557Z,97142.80
2018-06-11T09:02:10.337Z,97134.94
2018-06-11T09:04:38.834Z,97154.22
2018-06-11T09:07:07.497Z,97154.21
2018-06-11T09:09:36.003Z,97146.16
2018-06-11T09:12:04.508Z,97146.18
2018-06-11T09:14:32.907Z,97147.94
2018-06-11T09:17:01.669Z,97150.69
2018-06-11T09:19:30.077Z,97143.22
2018-06-11T09:21:58.516Z,97144.21
2018-06-11T09:24:27.064Z,97144.39
2018-06-11T09:26:55.549Z,97146.95
2018-06-11T09:29:24.000Z,97147.70
2018-06-11T09:31:52.640Z,97144.95
2018-06-11T09:34:21.197Z,97141.02
2018-06-11T09:36:50.416Z,97134.30
2018-06-11T09:39:18.872Z,97139.45
2018-06-11T09:41:47.455Z,97139.40
2018-06-11T09:44:16.670Z,97142.66
2018-06-11T09:46:45.252Z,97138.78
2018-06-11T09:49:14.439Z,97137.43
2018-06-11T09:51:43.327Z,97134.51
2018-06-11T09:54:11.823Z,97142.09
2018-06-11T09:56:40.288Z,97142.53
2018-06-11T09:59:09.539Z,97134.56
2018-06-11T10:01:38.241Z,97135.36
2018-06-11T10:04:06.693Z,97128.17
2018-06-11T10:06:35.205Z,97130.31
2018-06-11T10:09:04.181Z,97123.00
2018-06-11T10:11:32.636Z,97125.66
2018-06-11T10:14:01.137Z,97114.98
2018-06-11T10:16:29.720Z,97119.94
2018-06-11T10:18:58.225Z,97108.98
2018-06-11T10:21:26.857Z,97110.07
2018-06-11T10:23:55.476Z,97113.81
2018-06-11T10:26:23.905Z,97111.28
2018-06-11T10:28:52.494Z,97108.38
2018-06-11T10:31:20.975Z,97110.05
2018-06-11T10:33:49.704Z,97099.34
2018-06-11T10:36:18.229Z,97098.41
2018-06-11T10:38:46.650Z,97087.73
2018-06-11T10:41:16.429Z,97081.14
2018-06-11T10:43:44.885Z,97075.38
2018-06-11T10:46:13.347Z,97076.27
2018-06-11T10:48:42.791Z,97079.28
2018-06-11T10:51:11.356Z,97072.19
2018-06-11T10:53:39.802Z,97076.09
2018-06-11T10:56:08.246Z,97065.47
2018-06-11T10:58:36.828Z,97067.22
2018-06-11T11:01:05.722Z,97063.34
2018-06-11T11:03:34.303Z,97064.59
2018-06-11T11:06:02.816Z,97051.08
2018-06-11T11:08:31.332Z,97052.66
2018-06-11T11:11:00.156Z,97051.90
2018-06-11T11:13:28.741Z,97048.89
2018-06-11T11:15:57.550Z,97047.91
2018-06-11T11:18:26.291Z,97047.66
2018-06-11T11:20:55.029Z,97044.75
2018-06-11T11:23:23.559Z,97039.14
2018-06-11T11:25:52.083Z,97036.05
2018-06-11T11:28:20.565Z,97039.39
2018-06-11T11:30:49.165Z,97028.98
2018-06-11T11:33:17.835Z,96915.92
2018-06-11T11:35:46.331Z,97031.70
2018-06-11T11:38:15.297Z,97033.59
2018-06-11T11:40:43.792Z,97030.72
2018-06-11T11:43:12.405Z,97030.64
2018-06-11T11:45:41.071Z,97031.20
2018-06-11T11:48:10.179Z,97028.20
2018-06-11T11:50:39.377Z,97024.62
2018-06-11T11:53:07.799Z,97018.31
2018-06-11T11:55:36.539Z,97013.17
2018-06-11T11:58:05.156Z,97012.33
2018-06-11T12:00:33.671Z,97009.45
2018-06-11T12:03:02.231Z,97010.25
2018-06-11T12:05:31.184Z,97003.17
2018-06-11T12:07:59.739Z,97000.48
2018-06-11T12:10:28.752Z,96999.17
2018-06-11T12:12:57.261Z,96995.84
2018-06-11T12:15:25.797Z,96991.08
2018-06-11T12:17:54.274Z,96993.33
2018-06-11T12:20:22.942Z,96987.47
2018-06-11T12:22:51.413Z,96983.59
2018-06-11T12:25:19.958Z,96981.22
2018-06-11T12:27:48.405Z,96975.94
2018-06-11T12:30:16.921Z,96975.07
2018-06-11T12:32:45.625Z,96976.30
2018-06-11T12:35:14.093Z,96974.69
2018-06-11T12:37:42.823Z,96967.03
2018-06-11T12:40:11.529Z,96964.29
2018-06-11T12:42:39.986Z,96960.02
2018-06-11T12:45:08.530Z,96955.53
2018-06-11T12:47:37.147Z,96953.70
2018-06-11T12:50:05.682Z,96949.77
2018-06-11T12:52:34.244Z,96943.50
2018-06-11T12:55:02.822Z,96941.69
2018-06-11T12:57:31.290Z,96931.82
2018-06-11T12:59:59.770Z,96932.09
2018-06-11T13:02:28.257Z,96921.41
2018-06-11T13:04:56.923Z,96916.42
2018-06-11T13:07:25.552Z,96907.90
2018-06-11T13:09:54.213Z,96894.60
2018-06-11T13:12:22.811Z,96896.34
2018-06-11T13:14:51.320Z,96889.94
2018-06-11T13:17:19.877Z,96889.33
2018-06-11T13:19:48.433Z,96881.77
2018-06-11T13:22:17.073Z,96881.95
2018-06-11T13:24:45.553Z,96884.89
2018-06-11T13:27:14.149Z,96881.28
2018-06-11T13:29:42.603Z,96878.23
2018-06-11T13:32:11.150Z,96874.73
2018-06-11T13:34:46.842Z,96871.78
2018-06-11T13:37:15.410Z,96869.69
2018-06-11T13:39:43.924Z,96875.33
2018-06-11T13:42:12.542Z,96876.43
2018-06-11T13:44:41.165Z,96878.44
2018-06-11T13:47:09.645Z,96874.48
2018-06-11T13:49:38.137Z,96867.05
2018-06-11T13:52:07.284Z,96867.08
2018-06-11T13:54:36.452Z,96868.13
2018-06-11T13:57:05.132Z,96856.27
2018-06-11T13:59:33.665Z,96851.70
2018-06-11T14:02:02.164Z,96839.34
2018-06-11T14:04:31.676Z,96838.83
2018-06-11T14:07:00.498Z,96837.67
2018-06-11T14:09:29.782Z,96839.58
2018-06-11T14:11:58.278Z,96850.95
2018-06-11T14:14:26.790Z,96816.45
2018-06-11T14:16:55.965Z,96840.08
2018-06-11T14:19:24.871Z,96837.53
2018-06-11T14:21:53.772Z,96837.73
2018-06-11T14:24:22.303Z,96827.35
2018-06-11T14:26:50.718Z,96832.89
2018-06-11T14:29:19.237Z,96827.16
2018-06-11T14:31:47.779Z,96828.98
2018-06-11T14:34:16.341Z,96830.17
2018-06-11T14:36:44.945Z,96830.36
2018-06-11T14:39:13.506Z,96833.36
2018-06-11T14:41:42.073Z,96832.53
2018-06-11T14:44:10.662Z,96828.55
2018-06-11T14:46:39.818Z,96827.55
2018-06-11T14:49:08.868Z,96836.87
2018-06-11T14:51:37.740Z,96838.11
2018-06-11T14:54:06.239Z,96834.86
2018-06-11T14:56:34.712Z,96821.58
2018-06-11T14:59:03.261Z,96815.97
2018-06-11T15:01:31.696Z,96816.84
2018-06-11T15:04:00.548Z,96823.16
2018-06-11T15:06:29.942Z,96831.06
2018-06-11T15:08:58.437Z,96818.39
2018-06-11T15:11:26.923Z,96806.72
2018-06-11T15:13:55.356Z,96804.38
2018-06-11T15:16:23.878Z,96804.00
2018-06-11T15:18:53.498Z,96812.04
2018-06-11T15:21:21.996Z,96822.66
2018-06-11T15:23:50.582Z,96817.17
2018-06-11T15:26:19.107Z,96813.84
2018-06-11T15:28:47.692Z,96810.96
2018-06-11T15:31:16.285Z,96797.02
2018-06-11T15:33:44.892Z,96790.63
2018-06-11T15:36:13.474Z,96788.55
2018-06-11T15:38:43.296Z,96774.81
2018-06-11T15:41:12.574Z,96780.36
2018-06-11T15:43:41.163Z,96781.28
2018-06-11T15:46:09.749Z,96781.67
2018-06-11T15:48:38.258Z,96781.88
2018-06-11T15:51:06.976Z,96773.83
2018-06-11T15:53:35.519Z,96761.42
2018-06-11T15:56:05.158Z,96766.38
2018-06-11T15:58:33.651Z,96780.34
2018-06-11T16:01:02.249Z,96796.09
2018-06-11T16:03:31.415Z,96813.62
2018-06-11T16:06:00.156Z,96809.59
2018-06-11T16:08:28.790Z,96827.78
2018-06-11T16:10:57.417Z,96831.65
2018-06-11T16:13:25.954Z,96789.96
2018-06-11T16:15:55.639Z,96838.87
2018-06-11T16:18:24.144Z,96850.51
2018-06-11T16:20:52.635Z,96863.14
2018-06-11T16:23:24.249Z,96873.50
2018-06-11T16:25:54.536Z,96887.23
2018-06-11T16:28:23.451Z,96886.96
2018-06-11T16:30:51.933Z,96886.57
2018-06-11T16:33:21.971Z,96883.19
2018-06-11T16:35:50.551Z,96900.41
2018-06-11T16:38:19.455Z,96906.13
2018-06-11T16:40:48.027Z,96902.61
2018-06-11T16:43:17.083Z,96911.39
2018-06-11T16:45:46.116Z,96920.80
2018-06-11T16:48:14.750Z,96947.19
2018-06-11T16:50:43.364Z,96961.70
2018-06-11T16:53:12.868Z,96957.52
2018-06-11T16:55:41.434Z,96958.74
2018-06-11T16:58:12.370Z,96969.29
2018-06-11T17:00:41.342Z,96973.82
2018-06-11T17:03:09.971Z,96985.39
2018-06-11T17:05:38.554Z,96998.77
2018-06-11T17:08:07.464Z,97010.81
2018-06-11T17:10:36.103Z,97018.48
2018-06-11T17:13:05.084Z,97025.38
2018-06-11T17:15:33.876Z,97035.18
2018-06-11T17:18:02.806Z,97040.06
2018-06-11T17:20:31.830Z,97050.63
2018-06-11T17:23:01.093Z,97046.83
2018-06-11T17:25:30.727Z,97044.49
2018-06-11T17:27:59.552Z,97048.60
2018-06-11T17:30:28.127Z,97058.07
2018-06-11T17:32:56.772Z,97056.59
2018-06-11T17:35:26.653Z,97057.40
2018-06-11T17:37:55.731Z,97057.64
2018-06-11T17:40:24.557Z,97067.43
2018-06-11T17:42:53.556Z,97068.05
2018-06-11T17:45:22.166Z,97067.66
2018-06-11T17:47:53.048Z,97073.91
2018-06-11T17:50:22.510Z,97071.27
2018-06-11T17:52:51.116Z,97066.97
2018-06-11T17:55:20.679Z,97066.58
2018-06-11T17:57:49.361Z,97078.14
2018-06-11T18:00:19.051Z,97083.41
2018-06-11T18:02:49.080Z,97081.43
2018-06-11T18:05:18.185Z,97086.38
2018-06-11T18:07:46.927Z,97103.27
2018-06-11T18:10:16.297Z,97107.17
2018-06-11T18:12:47.190Z,97096.61
2018-06-11T18:15:16.063Z,97080.17
2018-06-11T18:17:45.044Z,97082.85
2018-06-11T18:20:13.585Z,97085.34
2018-06-11T18:22:43.004Z,97076.23
2018-06-11T18:25:11.770Z,97075.48
2018-06-11T18:27:41.526Z,97067.47
2018-06-11T18:30:10.054Z,97064.99
2018-06-11T18:32:38.710Z,97070.09
2018-06-11T18:35:07.288Z,97069.53
2018-06-11T18:37:35.778Z,97071.73
2018-06-11T18:40:04.735Z,97071.97
2018-06-11T18:42:34.145Z,97076.82
2018-06-11T18:45:03.379Z,97072.97
2018-06-11T18:47:32.195Z,97076.72
2018-06-11T18:50:01.133Z,97061.29
2018-06-11T18:52:30.052Z,97053.63
2018-06-11T18:54:58.702Z,97055.88
2018-06-11T18:57:27.700Z,97054.14
2018-06-11T18:59:56.226Z,97052.10
2018-06-11T19:02:25.661Z,97044.30
2018-06-11T19:04:54.307Z,97001.20
2018-06-11T19:07:22.881Z,97040.26
2018-06-11T19:09:52.651Z,97039.84
2018-06-11T19:12:21.238Z,97038.70
2018-06-11T19:14:53.464Z,97038.50
2018-06-11T19:17:22.608Z,97041.34
2018-06-11T19:19:51.552Z,97057.08
2018-06-11T19:22:20.770Z,97048.29
2018-06-11T19:24:49.706Z,97045.23
2018-06-11T19:27:18.705Z,97052.66
2018-06-11T19:29:50.720Z,97053.08
2018-06-11T19:32:19.236Z,97055.03
2018-06-11T19:34:47.788Z,97063.24
2018-06-11T19:37:16.979Z,97063.65
2018-06-11T19:39:45.529Z,97065.60
2018-06-11T19:42:14.145Z,97068.75
2018-06-11T19:44:42.637Z,97073.03
2018-06-11T19:47:11.304Z,97076.63
2018-06-11T19:49:39.927Z,97084.19
2018-06-11T19:52:08.830Z,97078.40
2018-06-11T19:54:37.356Z,97084.45
2018-06-11T19:57:06.001Z,97094.86
2018-06-11T19:59:34.465Z,97095.85
2018-06-11T20:02:03.111Z,97094.77
2018-06-11T20:04:31.560Z,97087.63
2018-06-11T20:07:00.178Z,97092.09
2018-06-11T20:09:28.659Z,97088.42
2018-06-11T20:11:57.173Z,97082.06
2018-06-11T20:14:25.616Z,97079.86
2018-06-11T20:16:54.086Z,97077.17
2018-06-11T20:19:23.188Z,97078.55
2018-06-11T20:21:51.605Z,97076.84
2018-06-11T20:24:20.059Z,97079.67
2018-06-11T20:26:48.522Z,97078.31
2018-06-11T20:29:17.022Z,97086.89
2018-06-11T20:31:45.491Z,97078.84
2018-06-11T20:34:13.985Z,97077.36
2018-06-11T20:36:42.481Z,97075.41
2018-06-11T20:39:11.706Z,97076.78
2018-06-11T20:41:40.338Z,97069.31
2018-06-11T20:44:08.935Z,97066.95
2018-06-11T20:46:37.429Z,97061.27
2018-06-11T20:49:05.991Z,97063.79
2018-06-11T20:51:34.448Z,97061.34
2018-06-11T20:54:03.014Z,97055.30
2018-06-11T20:56:31.558Z,97054.50
2018-06-11T20:59:00.209Z,97045.66
2018-06-11T21:01:28.683Z,97039.73
2018-06-11T21:03:58.464Z,97045.98
2018-06-11T21:06:26.970Z,97050.82
2018-06-11T21:08:55.458Z,97046.09
2018-06-11T21:11:23.964Z,97039.84
2018-06-11T21:13:52.465Z,97042.41
2018-06-11T21:16:20.952Z,97041.00
2018-06-11T21:18:49.431Z,97050.13
2018-06-11T21:21:17.901Z,97054.05
2018-06-11T21:23:46.410Z,97061.88
2018-06-11T21:26:14.895Z,97063.29
2018-06-11T21:28:43.323Z,97057.30
2018-06-11T21:31:11.823Z,97047.52
2018-06-11T21:33:41.072Z,97037.73
2018-06-11T21:36:09.621Z,97038.58
2018-06-11T21:38:38.145Z,97034.30
2018-06-11T21:41:06.819Z,97032.61
2018-06-11T21:43:35.280Z,97014.50
2018-06-11T21:46:03.933Z,97018.22
2018-06-11T21:48:32.442Z,97011.08
2018-06-11T21:51:01.009Z,97019.02
2018-06-11T21:53:29.533Z,97018.30
2018-06-11T21:55:58.023Z,97023.53
2018-06-11T21:58:26.573Z,97024.03
2018-06-11T22:00:55.033Z,97029.80
2018-06-11T22:03:23.519Z,97030.73
2018-06-11T22:05:51.920Z,97029.64
2018-06-11T22:08:20.465Z,97037.34
2018-06-11T22:10:48.958Z,97038.61
2018-06-11T22:13:17.421Z,97030.30
2018-06-11T22:15:45.867Z,97027.20
2018-06-11T22:18:14.261Z,97025.84
2018-06-11T22:20:42.746Z,97028.55
2018-06-11T22:23:11.203Z,97029.16
2018-06-11T22:25:39.849Z,97030.53
2018-06-11T22:28:08.327Z,97036.71
2018-06-11T22:30:36.880Z,97035.39
2018-06-11T22:33:05.282Z,97043.58
2018-06-11T22:35:33.779Z,97042.09
2018-06-11T22:38:02.228Z,97046.31
2018-06-11T22:40:30.752Z,97037.04
2018-06-11T22:42:59.156Z,97046.89
2018-06-11T22:45:27.605Z,97051.78
2018-06-11T22:47:56.094Z,97051.84
2018-06-11T22:50:24.509Z,97053.47
2018-06-11T22:52:52.964Z,97062.84
2018-06-11T22:55:21.443Z,97061.48
2018-06-11T22:57:49.866Z,97058.02
2018-06-11T23:00:28.967Z,97059.97
2018-06-11T23:02:57.424Z,97061.17
2018-06-11T23:05:25.842Z,97052.77
2018-06-11T23:07:54.289Z,97050.56
2018-06-11T23:10:22.706Z,97047.23
2018-06-11T23:12:51.221Z,97041.07
2018-06-11T23:15:19.731Z,97036.03
2018-06-11T23:17:48.148Z,97039.64
2018-06-11T23:20:16.586Z,97032.88
2018-06-11T23:22:45.009Z,97029.89
2018-06-11T23:25:13.789Z,97031.95
2018-06-11T23:27:42.203Z,97032.23
2018-06-11T23:30:10.698Z,97032.30
2018-06-11T23:32:39.176Z,97039.63
2018-06-11T23:35:07.597Z,97038.99
2018-06-11T23:37:36.096Z,97045.00
2018-06-11T23:40:04.794Z,97047.53
2018-06-11T23:42:33.268Z,97045.91
2018-06-11T23:45:01.715Z,97043.27
2018-06-11T23:47:30.821Z,97040.50
2018-06-11T23:49:59.306Z,97056.05
2018-06-11T23:52:27.718Z,97056.70
2018-06-11T23:54:56.136Z,97054.59
2018-06-11T23:57:24.641Z,97050.86
2018-06-11T23:59:53.051Z,97047.70
